createdAt,value
2022-12-08T00:00:35.724Z,98805.50
2022-12-08T00:03:06.071Z,98816.66
2022-12-08T00:05:53.893Z,98813.25
2022-12-08T00:08:42.396Z,98821.81
2022-12-08T00:11:16.506Z,98818.41
2022-12-08T00:13:46.597Z,98833.03
2022-12-08T00:16:16.559Z,98839.94
2022-12-08T00:18:46.365Z,98846.84
2022-12-08T00:21:16.082Z,98848.59
2022-12-08T00:23:45.809Z,98844.25
2022-12-08T00:26:15.740Z,98845.13
2022-12-08T00:28:45.631Z,98852.03
2022-12-08T00:31:15.733Z,98848.63
2022-12-08T00:33:45.860Z,98854.59
2022-12-08T00:36:17.120Z,98853.72
2022-12-08T00:38:49.078Z,98850.34
2022-12-08T00:41:41.535Z,98850.34
2022-12-08T00:44:13.857Z,98857.22
2022-12-08T00:46:44.512Z,98850.34
2022-12-08T00:49:14.706Z,98859.78
2022-12-08T00:51:45.501Z,98864.94
2022-12-08T00:54:15.568Z,98874.38
2022-12-08T00:56:45.632Z,98867.53
2022-12-08T00:59:15.475Z,98863.25
2022-12-08T01:01:47.777Z,98868.38
2022-12-08T01:04:21.336Z,98870.09
2022-12-08T01:06:55.145Z,98871.78
2022-12-08T01:09:26.417Z,98863.22
2022-12-08T01:11:58.154Z,98860.69
2022-12-08T01:14:29.551Z,98870.97
2022-12-08T01:17:00.182Z,98874.41
2022-12-08T01:19:32.255Z,98884.66
2022-12-08T01:22:02.319Z,98890.69
2022-12-08T01:24:32.935Z,98883.84
2022-12-08T01:27:03.175Z,98888.13
2022-12-08T01:29:33.931Z,98900.13
2022-12-08T01:32:04.307Z,98907.84
2022-12-08T01:34:34.879Z,98910.44
2022-12-08T01:37:05.293Z,98907.84
2022-12-08T01:39:36.765Z,98901.84
2022-12-08T01:42:20.378Z,98913.00
2022-12-08T01:45:06.172Z,98916.44
2022-12-08T01:47:50.732Z,98925.84
2022-12-08T01:50:22.665Z,98931.84
2022-12-08T01:52:59.863Z,98935.28
2022-12-08T01:55:37.547Z,98930.16
2022-12-08T01:58:29.450Z,98935.28
2022-12-08T02:01:00.471Z,98933.56
2022-12-08T02:03:39.583Z,98936.13
2022-12-08T02:06:11.509Z,98941.28
2022-12-08T02:08:43.470Z,98935.28
2022-12-08T02:11:14.874Z,98943.00
2022-12-08T02:13:47.696Z,98943.84
2022-12-08T02:16:23.274Z,98939.53
2022-12-08T02:19:22.056Z,98947.31
2022-12-08T02:22:04.245Z,98954.13
2022-12-08T02:24:43.811Z,98954.97
2022-12-08T02:27:41.338Z,98957.53
2022-12-08T02:30:29.991Z,98962.69
2022-12-08T02:33:42.492Z,98983.25
2022-12-08T02:36:27.417Z,98978.09
2022-12-08T02:39:20.950Z,98992.66
2022-12-08T02:41:58.367Z,98994.41
2022-12-08T02:44:58.755Z,98993.50
2022-12-08T02:47:31.083Z,98998.66
2022-12-08T02:50:02.058Z,99007.25
2022-12-08T02:52:33.118Z,98995.22
2022-12-08T02:55:11.628Z,99008.03
2022-12-08T02:58:23.695Z,99012.28
2022-12-08T03:01:19.520Z,99016.56
2022-12-08T03:04:04.176Z,99021.69
2022-12-08T03:06:58.077Z,99022.53
2022-12-08T03:09:44.718Z,99030.25
2022-12-08T03:12:15.409Z,99029.44
2022-12-08T03:14:52.005Z,99037.06
2022-12-08T03:17:27.123Z,99041.31
2022-12-08T03:19:59.624Z,99044.81
2022-12-08T03:22:31.154Z,99051.66
2022-12-08T03:25:02.133Z,99046.50
2022-12-08T03:27:34.667Z,99055.88
2022-12-08T03:30:06.447Z,99057.63
2022-12-08T03:33:12.046Z,99066.97
2022-12-08T03:35:43.239Z,99073.91
2022-12-08T03:38:16.691Z,99074.75
2022-12-08T03:41:07.414Z,99079.88
2022-12-08T03:43:38.613Z,99085.91
2022-12-08T03:46:08.709Z,99084.97
2022-12-08T03:48:39.210Z,99097.81
2022-12-08T03:51:09.501Z,99098.69
2022-12-08T03:53:41.042Z,99096.06
2022-12-08T03:56:30.196Z,99102.78
2022-12-08T03:59:01.694Z,99106.25
2022-12-08T04:01:35.695Z,99109.66
2022-12-08T04:04:05.805Z,99112.13
2022-12-08T04:06:35.784Z,99118.03
2022-12-08T04:09:06.573Z,99119.69
2022-12-08T04:11:37.341Z,99112.69
2022-12-08T04:14:07.855Z,99120.44
2022-12-08T04:16:38.406Z,99119.66
2022-12-08T04:19:09.657Z,99122.91
2022-12-08T04:21:40.373Z,99124.53
2022-12-08T04:24:11.909Z,99117.47
2022-12-08T04:26:42.034Z,99114.88
2022-12-08T04:29:12.768Z,99109.63
2022-12-08T04:31:43.485Z,99112.19
2022-12-08T04:34:14.367Z,99107.78
2022-12-08T04:36:44.708Z,99109.50
2022-12-08T04:39:14.748Z,99118.06
2022-12-08T04:41:44.864Z,99118.88
2022-12-08T04:44:15.801Z,99120.59
2022-12-08T04:46:46.253Z,99127.34
2022-12-08T04:49:16.817Z,99125.59
2022-12-08T04:51:46.847Z,99124.63
2022-12-08T04:54:17.409Z,99122.00
2022-12-08T04:56:47.820Z,99121.94
2022-12-08T04:59:18.063Z,99128.72
2022-12-08T05:01:48.688Z,99128.59
2022-12-08T05:04:18.915Z,99130.25
2022-12-08T05:06:48.690Z,99127.63
2022-12-08T05:09:20.165Z,99135.22
2022-12-08T05:11:50.727Z,99139.47
2022-12-08T05:14:22.031Z,99135.09
2022-12-08T05:16:52.186Z,99132.47
2022-12-08T05:19:23.124Z,99129.72
2022-12-08T05:21:53.747Z,99128.75
2022-12-08T05:24:24.403Z,99129.47
2022-12-08T05:26:55.339Z,99138.03
2022-12-08T05:29:26.246Z,99133.59
2022-12-08T05:31:56.561Z,99132.50
2022-12-08T05:34:27.046Z,99133.19
2022-12-08T05:36:58.019Z,99132.91
2022-12-08T05:39:28.651Z,99133.56
2022-12-08T05:41:59.816Z,99124.69
2022-12-08T05:44:30.703Z,99132.13
2022-12-08T05:47:01.901Z,99130.47
2022-12-08T05:49:32.253Z,99138.03
2022-12-08T05:52:02.646Z,99140.31
2022-12-08T05:54:33.035Z,99145.25
2022-12-08T05:57:03.707Z,99138.25
2022-12-08T05:59:33.907Z,99131.13
2022-12-08T06:02:04.514Z,99140.34
2022-12-08T06:04:34.986Z,99133.22
2022-12-08T06:07:06.189Z,99136.44
2022-12-08T06:09:36.789Z,99134.66
2022-12-08T06:12:07.246Z,99131.81
2022-12-08T06:14:36.490Z,99129.84
2022-12-08T06:17:05.335Z,99136.56
2022-12-08T06:19:34.601Z,99133.81
2022-12-08T06:22:04.337Z,99124.72
2022-12-08T06:24:33.198Z,99117.34
2022-12-08T06:27:02.546Z,99117.91
2022-12-08T06:29:31.852Z,99112.69
2022-12-08T06:32:01.195Z,99110.84
2022-12-08T06:34:30.501Z,99114.97
2022-12-08T06:37:00.025Z,99107.59
2022-12-08T06:39:29.270Z,99107.63
2022-12-08T06:42:16.910Z,99108.06
2022-12-08T06:44:46.361Z,99099.25
2022-12-08T06:47:15.625Z,99099.03
2022-12-08T06:49:44.681Z,99096.56
2022-12-08T06:52:13.568Z,99096.63
2022-12-08T06:54:42.468Z,99096.91
2022-12-08T06:57:11.708Z,99100.06
2022-12-08T06:59:41.188Z,99092.94
2022-12-08T07:02:11.107Z,99086.94
2022-12-08T07:04:40.103Z,99077.25
2022-12-08T07:07:09.888Z,99076.69
2022-12-08T07:09:38.716Z,99064.38
2022-12-08T07:12:07.911Z,99057.13
2022-12-08T07:14:37.204Z,99055.91
2022-12-08T07:17:06.658Z,99051.50
2022-12-08T07:19:35.455Z,99048.00
2022-12-08T07:22:04.891Z,99048.91
2022-12-08T07:24:34.230Z,99051.06
2022-12-08T07:27:03.809Z,99043.88
2022-12-08T07:32:01.963Z,99022.47
2022-12-08T07:34:30.806Z,99033.34
2022-12-08T07:37:00.164Z,99027.94
2022-12-08T07:39:29.508Z,99024.00
2022-12-08T07:41:58.688Z,99019.63
2022-12-08T07:44:28.682Z,99014.25
2022-12-08T07:46:58.051Z,99008.09
2022-12-08T07:49:27.122Z,99003.34
2022-12-08T07:51:56.079Z,98987.84
2022-12-08T07:54:25.374Z,98984.84
2022-12-08T07:56:54.214Z,98983.09
2022-12-08T07:59:23.128Z,98982.94
2022-12-08T08:02:13.169Z,98992.25
2022-12-08T08:04:41.635Z,98992.91
2022-12-08T08:07:11.010Z,98980.44
2022-12-08T08:09:39.936Z,98978.50
2022-12-08T08:12:30.269Z,98971.47
2022-12-08T08:15:04.496Z,98978.16
2022-12-08T08:17:34.027Z,98967.63
2022-12-08T08:20:04.416Z,98965.34
2022-12-08T08:22:35.240Z,98966.94
2022-12-08T08:25:04.939Z,98957.09
2022-12-08T08:27:33.865Z,98960.97
2022-12-08T08:30:05.869Z,98955.25
2022-12-08T08:32:35.965Z,98955.13
2022-12-08T08:35:05.732Z,98943.91
2022-12-08T08:37:34.681Z,98948.25
2022-12-08T08:40:03.979Z,98942.41
2022-12-08T08:42:33.447Z,98950.41
2022-12-08T08:45:02.501Z,98943.31
2022-12-08T08:47:31.488Z,98930.94
2022-12-08T08:50:00.804Z,98930.38
2022-12-08T08:52:29.719Z,98933.06
2022-12-08T08:54:59.022Z,98936.69
2022-12-08T08:57:28.270Z,98941.81
2022-12-08T08:59:57.274Z,98935.25
2022-12-08T09:02:26.444Z,98936.09
2022-12-08T09:04:55.702Z,98933.22
2022-12-08T09:07:24.929Z,98931.63
2022-12-08T09:09:58.446Z,98926.63
2022-12-08T09:12:30.899Z,98905.59
2022-12-08T09:15:00.448Z,98910.38
2022-12-08T09:17:29.240Z,98903.34
2022-12-08T09:19:58.482Z,98890.34
2022-12-08T09:22:27.355Z,98884.28
2022-12-08T09:24:56.537Z,98882.59
2022-12-08T09:27:25.293Z,98879.16
2022-12-08T09:29:55.431Z,98876.22
2022-12-08T09:32:25.365Z,98873.78
2022-12-08T09:34:55.605Z,98875.16
2022-12-08T09:37:24.537Z,98865.66
2022-12-08T09:39:53.835Z,98872.50
2022-12-08T09:42:46.141Z,98865.09
2022-12-08T09:45:18.317Z,98860.13
2022-12-08T09:48:05.616Z,98859.75
2022-12-08T09:50:40.886Z,98860.00
2022-12-08T09:53:21.509Z,98862.66
2022-12-08T09:56:22.182Z,98867.41
2022-12-08T09:59:02.820Z,98864.41
2022-12-08T10:01:35.756Z,98859.28
2022-12-08T10:04:05.942Z,98857.13
2022-12-08T10:06:54.649Z,98864.50
2022-12-08T10:09:43.067Z,98854.91
2022-12-08T10:12:34.301Z,98864.59
2022-12-08T10:15:40.604Z,98863.25
2022-12-08T10:18:32.002Z,98853.00
2022-12-08T10:21:23.735Z,98854.13
2022-12-08T10:24:00.320Z,98851.97
2022-12-08T10:26:33.721Z,98851.59
2022-12-08T10:29:08.093Z,98855.38
2022-12-08T10:31:37.460Z,98846.97
2022-12-08T10:34:25.201Z,98851.72
2022-12-08T10:37:02.046Z,98854.41
2022-12-08T10:39:38.826Z,98843.47
2022-12-08T10:42:10.336Z,98846.38
2022-12-08T10:44:53.920Z,98836.38
2022-12-08T10:47:25.097Z,98830.72
2022-12-08T10:50:29.155Z,98836.38
2022-12-08T10:53:08.977Z,98829.09
2022-12-08T10:56:12.027Z,98829.66
2022-12-08T10:58:48.905Z,98825.75
2022-12-08T11:01:31.620Z,98822.19
2022-12-08T11:04:01.630Z,98829.50
2022-12-08T11:06:30.441Z,98822.97
2022-12-08T11:09:23.736Z,98827.69
2022-12-08T11:12:01.419Z,98826.59
2022-12-08T11:14:43.765Z,98828.50
2022-12-08T11:17:19.955Z,98824.75
2022-12-08T11:20:01.870Z,98817.28
2022-12-08T11:22:33.670Z,98829.31
2022-12-08T11:25:13.219Z,98830.69
2022-12-08T11:27:45.640Z,98830.31
2022-12-08T11:30:25.913Z,98822.06
2022-12-08T11:33:16.012Z,98826.47
2022-12-08T11:35:49.414Z,98818.50
2022-12-08T11:38:23.269Z,98824.84
2022-12-08T11:41:12.285Z,98815.66
2022-12-08T11:44:07.036Z,98812.25
2022-12-08T11:47:03.160Z,98808.28
2022-12-08T11:49:38.872Z,98807.84
2022-12-08T11:52:33.357Z,98804.56
2022-12-08T11:55:38.992Z,98803.41
2022-12-08T11:58:24.055Z,98805.91
2022-12-08T12:00:53.224Z,98801.44
2022-12-08T12:03:39.706Z,98801.44
2022-12-08T12:06:46.515Z,98792.97
2022-12-08T12:09:18.217Z,98802.47
2022-12-08T12:12:14.607Z,98798.19
2022-12-08T12:15:19.247Z,98802.56
2022-12-08T12:18:09.724Z,98804.81
2022-12-08T12:20:59.643Z,98801.69
2022-12-08T12:23:48.587Z,98808.81
2022-12-08T12:26:27.364Z,98800.50
2022-12-08T12:29:01.884Z,98804.25
2022-12-08T12:31:44.277Z,98806.28
2022-12-08T12:34:25.102Z,98802.91
2022-12-08T12:37:05.074Z,98817.00
2022-12-08T12:39:47.288Z,98816.22
2022-12-08T12:42:39.361Z,98828.28
2022-12-08T12:45:17.522Z,98832.81
2022-12-08T12:48:01.441Z,98823.25
2022-12-08T12:50:34.273Z,98809.69
2022-12-08T12:53:27.858Z,98817.53
2022-12-08T12:55:58.332Z,98821.44
2022-12-08T12:58:33.738Z,98818.66
2022-12-08T13:01:34.713Z,98822.97
2022-12-08T13:04:10.842Z,98814.56
2022-12-08T13:06:44.561Z,98816.31
2022-12-08T13:09:34.099Z,98812.75
2022-12-08T13:12:12.545Z,98826.97
2022-12-08T13:14:51.964Z,98824.47
2022-12-08T13:17:45.698Z,98827.69
2022-12-08T13:20:25.269Z,98821.00
2022-12-08T13:23:27.869Z,98828.59
2022-12-08T13:26:19.167Z,98830.34
2022-12-08T13:29:04.604Z,98832.16
2022-12-08T13:32:03.273Z,98844.22
2022-12-08T13:34:47.362Z,98853.97
2022-12-08T13:37:22.626Z,98850.56
2022-12-08T13:39:58.068Z,98852.28
2022-12-08T13:42:44.011Z,98848.63
2022-12-08T13:45:36.209Z,98850.56
2022-12-08T13:48:41.627Z,98850.28
2022-12-08T13:53:22.329Z,98844.94
2022-12-08T13:57:27.199Z,98846.25
2022-12-08T14:00:01.550Z,98850.03
2022-12-08T14:02:48.469Z,98849.16
2022-12-08T14:05:34.865Z,98851.69
2022-12-08T14:08:57.906Z,98854.91
2022-12-08T14:11:40.430Z,98853.19
2022-12-08T14:14:32.607Z,98853.50
2022-12-08T14:17:13.766Z,98852.88
2022-12-08T14:19:53.526Z,98852.91
2022-12-08T14:22:22.855Z,98858.47
2022-12-08T14:24:54.603Z,98865.31
2022-12-08T14:27:27.133Z,98867.06
2022-12-08T14:30:02.931Z,98870.56
2022-12-08T14:32:54.033Z,98865.41
2022-12-08T14:35:31.635Z,98864.81
2022-12-08T14:38:04.086Z,98869.38
2022-12-08T14:40:38.286Z,98861.59
2022-12-08T14:43:16.749Z,98867.66
2022-12-08T14:45:45.881Z,98873.09
2022-12-08T14:48:26.970Z,98861.75
2022-12-08T14:51:05.027Z,98869.59
2022-12-08T14:53:47.688Z,98866.97
2022-12-08T14:56:25.983Z,98873.28
2022-12-08T14:59:29.237Z,98880.22
2022-12-08T15:02:10.437Z,98882.81
2022-12-08T15:04:42.681Z,98879.91
2022-12-08T15:07:19.055Z,98880.09
2022-12-08T15:09:51.335Z,98885.25
2022-12-08T15:12:27.142Z,98890.13
2022-12-08T15:15:03.313Z,98884.38
2022-12-08T15:17:45.316Z,98886.09
2022-12-08T15:20:42.525Z,98891.22
2022-12-08T15:23:27.505Z,98889.69
2022-12-08T15:25:58.417Z,98890.78
2022-12-08T15:28:32.242Z,98891.47
2022-12-08T15:31:02.174Z,98892.53
2022-12-08T15:33:31.473Z,98887.34
2022-12-08T15:36:00.674Z,98890.84
2022-12-08T15:38:30.924Z,98899.44
2022-12-08T15:41:00.533Z,98893.44
2022-12-08T15:43:32.281Z,98897.75
2022-12-08T15:46:01.575Z,98891.75
2022-12-08T15:48:32.179Z,98890.88
2022-12-08T15:51:01.242Z,98904.00
2022-12-08T15:53:30.813Z,98909.16
2022-12-08T15:58:59.433Z,98906.69
2022-12-08T16:01:29.922Z,98915.41
2022-12-08T16:04:36.822Z,98907.56
2022-12-08T16:09:45.180Z,98915.97
2022-12-08T16:13:27.259Z,98914.25
2022-12-08T16:18:27.472Z,98914.19
2022-12-08T16:21:31.622Z,98912.47
2022-12-08T16:23:46.751Z,98912.56
2022-12-08T16:26:44.125Z,98914.25
2022-12-08T16:29:08.359Z,98915.16
2022-12-08T16:31:38.117Z,98918.63
2022-12-08T16:34:07.754Z,98920.34
2022-12-08T16:36:36.821Z,98913.53
2022-12-08T16:39:06.601Z,98920.44
2022-12-08T16:41:55.169Z,98915.22
2022-12-08T16:44:24.540Z,98908.47
2022-12-08T16:46:53.601Z,98912.88
2022-12-08T16:49:22.985Z,98913.69
2022-12-08T16:51:51.998Z,98921.47
2022-12-08T16:54:21.623Z,98924.09
2022-12-08T16:56:50.728Z,98931.75
2022-12-08T16:59:20.139Z,98926.63
2022-12-08T17:01:49.472Z,98924.97
2022-12-08T17:04:33.698Z,98926.78
2022-12-08T17:07:03.902Z,98921.94
2022-12-08T17:09:33.719Z,98922.47
2022-12-08T17:12:04.301Z,98926.88
2022-12-08T17:14:36.639Z,98912.06
2022-12-08T17:17:06.347Z,98915.78
2022-12-08T17:19:35.683Z,98917.44
2022-12-08T17:22:05.723Z,98927.19
2022-12-08T17:24:35.898Z,98919.31
2022-12-08T17:27:05.621Z,98925.28
2022-12-08T17:29:36.001Z,98924.47
2022-12-08T17:32:04.994Z,98939.25
2022-12-08T17:34:34.559Z,98938.41
2022-12-08T17:37:03.456Z,98927.22
2022-12-08T17:39:33.188Z,98922.06
2022-12-08T17:42:02.556Z,98917.84
2022-12-08T17:44:33.111Z,98918.75
2022-12-08T17:47:02.852Z,98916.19
2022-12-08T17:49:36.733Z,98911.00
2022-12-08T17:52:07.921Z,98909.22
2022-12-08T17:54:37.760Z,98904.19
2022-12-08T17:57:07.070Z,98908.53
2022-12-08T17:59:36.448Z,98907.69
2022-12-08T18:02:05.900Z,98904.31
2022-12-08T18:04:34.970Z,98902.56
2022-12-08T18:07:04.964Z,98903.47
2022-12-08T18:09:35.113Z,98892.31
2022-12-08T18:12:04.410Z,98890.59
2022-12-08T18:14:33.587Z,98895.75
2022-12-08T18:17:02.901Z,98895.75
2022-12-08T18:19:32.207Z,98897.44
2022-12-08T18:22:01.520Z,98902.59
2022-12-08T18:24:30.571Z,98907.81
2022-12-08T18:27:00.039Z,98912.13
2022-12-08T18:29:29.083Z,98911.28
2022-12-08T18:31:58.385Z,98912.13
2022-12-08T18:34:27.491Z,98915.63
2022-12-08T18:36:56.434Z,98912.16
2022-12-08T18:39:30.440Z,98918.19
2022-12-08T18:42:00.843Z,98910.50
2022-12-08T18:44:31.508Z,98910.50
2022-12-08T18:47:00.510Z,98912.31
2022-12-08T18:49:29.397Z,98913.16
2022-12-08T18:51:58.691Z,98898.63
2022-12-08T18:54:57.754Z,98901.16
2022-12-08T18:57:18.376Z,98895.16
2022-12-08T18:59:47.726Z,98902.91
2022-12-08T19:02:16.828Z,98898.56
2022-12-08T19:04:46.694Z,98899.50
2022-12-08T19:07:19.637Z,98904.56
2022-12-08T19:09:48.857Z,98897.81
2022-12-08T19:12:17.986Z,98903.88
2022-12-08T19:14:47.161Z,98888.47
2022-12-08T19:17:16.259Z,98900.47
2022-12-08T19:19:45.328Z,98898.81
2022-12-08T19:22:15.171Z,98886.84
2022-12-08T19:24:44.440Z,98885.91
2022-12-08T19:27:13.487Z,98878.19
2022-12-08T19:29:42.611Z,98876.59
2022-12-08T19:32:11.638Z,98878.31
2022-12-08T19:34:40.939Z,98872.25
2022-12-08T19:37:13.434Z,98874.81
2022-12-08T19:40:01.058Z,98865.34
2022-12-08T19:42:48.642Z,98875.72
2022-12-08T19:45:22.709Z,98873.97
2022-12-08T19:47:51.839Z,98880.06
2022-12-08T19:50:40.946Z,98876.66
2022-12-08T19:53:16.276Z,98877.44
2022-12-08T19:55:46.243Z,98886.19
2022-12-08T19:58:15.224Z,98873.31
2022-12-08T20:00:45.191Z,98883.59
2022-12-08T20:03:19.768Z,98877.59
2022-12-08T20:05:51.383Z,98878.44
2022-12-08T20:08:20.810Z,98879.34
2022-12-08T20:10:51.701Z,98877.72
2022-12-08T20:13:39.071Z,98883.72
2022-12-08T20:16:09.150Z,98888.94
2022-12-08T20:18:43.406Z,98877.56
2022-12-08T20:21:13.463Z,98880.16
2022-12-08T20:23:42.738Z,98869.75
2022-12-08T20:26:14.484Z,98873.09
2022-12-08T20:28:43.419Z,98877.41
2022-12-08T20:31:24.520Z,98879.78
2022-12-08T20:33:54.290Z,98892.19
2022-12-08T20:36:24.022Z,98892.13
2022-12-08T20:38:55.308Z,98888.66
2022-12-08T20:41:24.805Z,98896.41
2022-12-08T20:43:54.512Z,98893.13
2022-12-08T20:46:23.779Z,98897.53
2022-12-08T20:48:52.812Z,98900.19
2022-12-08T20:51:23.759Z,98884.59
2022-12-08T20:53:56.089Z,98891.44
2022-12-08T20:56:26.516Z,98891.53
2022-12-08T20:58:57.079Z,98896.69
2022-12-08T21:01:27.194Z,98902.69
2022-12-08T21:03:56.585Z,98907.00
2022-12-08T21:06:30.231Z,98900.94
2022-12-08T21:08:59.298Z,98905.22
2022-12-08T21:11:28.668Z,98897.41
2022-12-08T21:13:58.537Z,98910.31
2022-12-08T21:16:27.474Z,98901.69
2022-12-08T21:18:56.604Z,98910.28
2022-12-08T21:21:26.545Z,98906.88
2022-12-08T21:23:55.630Z,98900.84
2022-12-08T21:26:28.722Z,98911.09
2022-12-08T21:28:59.957Z,98911.06
2022-12-08T21:31:32.843Z,98909.41
2022-12-08T21:34:03.842Z,98905.06
2022-12-08T21:36:33.096Z,98899.06
2022-12-08T21:39:03.699Z,98884.63
2022-12-08T21:41:51.327Z,98886.28
2022-12-08T21:44:20.550Z,98875.16
2022-12-08T21:46:49.605Z,98871.75
2022-12-08T21:49:19.219Z,98867.41
2022-12-08T21:51:48.154Z,98856.25
2022-12-08T21:54:19.180Z,98848.53
2022-12-08T21:56:50.781Z,98848.56
2022-12-08T21:59:21.679Z,98834.00
2022-12-08T22:01:51.170Z,98819.50
2022-12-08T22:04:22.585Z,98819.47
2022-12-08T22:06:52.735Z,98822.13
2022-12-08T22:09:21.648Z,98826.50
2022-12-08T22:11:50.825Z,98820.53
2022-12-08T22:14:22.862Z,98812.72
2022-12-08T22:16:52.042Z,98816.13
2022-12-08T22:19:20.907Z,98806.81
2022-12-08T22:21:50.277Z,98804.25
2022-12-08T22:24:19.153Z,98801.66
2022-12-08T22:26:48.374Z,98803.41
2022-12-08T22:29:17.950Z,98804.25
2022-12-08T22:31:47.188Z,98799.13
2022-12-08T22:34:16.352Z,98796.53
2022-12-08T22:36:45.549Z,98797.41
2022-12-08T22:39:15.064Z,98795.69
2022-12-08T22:41:44.480Z,98788.84
2022-12-08T22:44:16.344Z,98778.47
2022-12-08T22:46:46.616Z,98769.97
2022-12-08T22:49:16.076Z,98770.00
2022-12-08T22:51:45.424Z,98774.28
2022-12-08T22:54:14.479Z,98783.75
2022-12-08T22:56:43.951Z,98787.25
2022-12-08T22:59:12.986Z,98797.63
2022-12-08T23:01:41.972Z,98780.41
2022-12-08T23:04:17.381Z,98792.59
2022-12-08T23:06:47.321Z,98794.34
2022-12-08T23:09:16.550Z,98792.63
2022-12-08T23:11:45.896Z,98781.41
2022-12-08T23:14:15.186Z,98770.25
2022-12-08T23:16:44.329Z,98777.94
2022-12-08T23:19:13.532Z,98770.19
2022-12-08T23:21:42.626Z,98763.28
2022-12-08T23:24:11.773Z,98771.94
2022-12-08T23:26:41.199Z,98766.75
2022-12-08T23:29:10.795Z,98770.16
2022-12-08T23:31:40.252Z,98766.72
2022-12-08T23:34:11.205Z,98761.59
2022-12-08T23:36:40.408Z,98771.00
2022-12-08T23:39:09.544Z,98761.56
2022-12-08T23:41:39.184Z,98752.13
2022-12-08T23:44:10.286Z,98749.59
2022-12-08T23:46:39.352Z,98753.91
2022-12-08T23:49:08.558Z,98758.97
2022-12-08T23:51:37.844Z,98775.28
2022-12-08T23:54:07.963Z,98769.28
2022-12-08T23:56:36.898Z,98778.00
2022-12-08T23:59:06.930Z,98778.84
